메인 페이지
METAR-TAF:

METAR-TAF

공항 :

순스발 헤르뇌산드, 스웨덴

위도: 62-32N, 경도: 017-27E, 고도: 4m

현재 날씨관측

예보는 38분 전, 07:20시(UTC)에 발표되었습니다.
남동8kt
온도 19°C
습도 88%
기압 1012 hPa
시정 10km 이상
고도 800ft 상공 구름 많음
고도 2000ft 상공 흐림

METAR: ESNN 230720Z 14008KT 9999 BKN008 OVC020 19/17 Q1012

시각: 09:58 (07:58 UTC)

예보

예보는 1 시간 39분 전, 06:19시(UTC)에 발표되었습니다.
예보 대상 시간: 23일 06시부터 23일 11시까지 (UTC)
남동5kt
시정 10km 이상
고도 600ft 상공 구름 많음
전환 중
23일 06시부터 23일 09시까지 (UTC)
고도 1500ft 상공 구름 보통

TAF: ESNN 230619Z 2306/2311 14005KT 9999 BKN006 BECMG 2306/2309 SCT015

4,000개 이상의 공항 관측 자료 및 예보 (METAR 및 TAF 보고).

지도상에서 검색 가능한 기상관측소가 노란 점과 빨간 점으로 표시되어 있습니다.

기상관측소 명을 보려면 표시 위로 마우스를 이동하세요.

날씨 관측과 예보를 보려면 클릭하세요.

지도 변경 : 확대하려면 엑스 표시가 있는 녹색 버튼, 축소하려면 빼기 표시가 있는 녹색 버튼, 다음 페이지의 지도를 보려면 녹색 화살표를 클릭하세요.


METAR-TAF: